sensor_id;sensor_type;location;lat;lon;timestamp;P1;durP1;ratioP1;P2;durP2;ratioP2
8592;SDS011;4334;49.982;8.398;2023-08-06T00:00:56;4.47;;;3.90;;
8592;SDS011;4334;49.982;8.398;2023-08-06T00:03:22;4.60;;;3.63;;
8592;SDS011;4334;49.982;8.398;2023-08-06T00:05:49;5.67;;;4.13;;
8592;SDS011;4334;49.982;8.398;2023-08-06T00:08:16;4.03;;;3.50;;
8592;SDS011;4334;49.982;8.398;2023-08-06T00:10:43;5.47;;;3.93;;
8592;SDS011;4334;49.982;8.398;2023-08-06T00:13:11;5.27;;;3.50;;
8592;SDS011;4334;49.982;8.398;2023-08-06T00:15:37;4.60;;;3.80;;
8592;SDS011;4334;49.982;8.398;2023-08-06T00:18:04;3.87;;;3.47;;
8592;SDS011;4334;49.982;8.398;2023-08-06T00:20:31;4.80;;;3.70;;
8592;SDS011;4334;49.982;8.398;2023-08-06T00:22:58;3.60;;;3.30;;
8592;SDS011;4334;49.982;8.398;2023-08-06T00:25:24;4.03;;;3.53;;
8592;SDS011;4334;49.982;8.398;2023-08-06T00:27:51;4.63;;;3.00;;
8592;SDS011;4334;49.982;8.398;2023-08-06T00:30:19;4.67;;;3.80;;
8592;SDS011;4334;49.982;8.398;2023-08-06T00:32:46;3.97;;;3.23;;
8592;SDS011;4334;49.982;8.398;2023-08-06T00:35:13;4.93;;;3.10;;
8592;SDS011;4334;49.982;8.398;2023-08-06T00:37:39;4.87;;;3.20;;
8592;SDS011;4334;49.982;8.398;2023-08-06T00:40:07;4.57;;;3.63;;
8592;SDS011;4334;49.982;8.398;2023-08-06T00:42:34;4.40;;;3.57;;
8592;SDS011;4334;49.982;8.398;2023-08-06T00:45:01;4.43;;;2.90;;
8592;SDS011;4334;49.982;8.398;2023-08-06T00:47:33;3.30;;;2.97;;
8592;SDS011;4334;49.982;8.398;2023-08-06T00:50:00;3.17;;;2.73;;
8592;SDS011;4334;49.982;8.398;2023-08-06T00:52:27;3.37;;;3.03;;
8592;SDS011;4334;49.982;8.398;2023-08-06T00:54:54;3.97;;;3.07;;
8592;SDS011;4334;49.982;8.398;2023-08-06T00:57:21;3.60;;;2.80;;
8592;SDS011;4334;49.982;8.398;2023-08-06T00:59:50;4.83;;;3.20;;
8592;SDS011;4334;49.982;8.398;2023-08-06T01:02:18;4.23;;;2.67;;
8592;SDS011;4334;49.982;8.398;2023-08-06T01:04:46;4.93;;;3.27;;
8592;SDS011;4334;49.982;8.398;2023-08-06T01:07:15;4.33;;;3.23;;
8592;SDS011;4334;49.982;8.398;2023-08-06T01:09:54;18.93;;;2.97;;
8592;SDS011;4334;49.982;8.398;2023-08-06T01:12:30;3.90;;;3.17;;
8592;SDS011;4334;49.982;8.398;2023-08-06T01:15:09;3.70;;;3.10;;
8592;SDS011;4334;49.982;8.398;2023-08-06T01:17:41;4.00;;;3.37;;
8592;SDS011;4334;49.982;8.398;2023-08-06T01:20:10;4.40;;;3.50;;
8592;SDS011;4334;49.982;8.398;2023-08-06T01:22:40;5.77;;;3.37;;
8592;SDS011;4334;49.982;8.398;2023-08-06T01:25:07;5.57;;;3.63;;
8592;SDS011;4334;49.982;8.398;2023-08-06T01:27:37;3.70;;;3.13;;
8592;SDS011;4334;49.982;8.398;2023-08-06T01:30:12;6.43;;;3.67;;
8592;SDS011;4334;49.982;8.398;2023-08-06T01:32:44;5.50;;;3.40;;
8592;SDS011;4334;49.982;8.398;2023-08-06T01:35:14;4.80;;;3.57;;
8592;SDS011;4334;49.982;8.398;2023-08-06T01:37:45;4.23;;;3.50;;
8592;SDS011;4334;49.982;8.398;2023-08-06T01:40:13;3.80;;;3.33;;
8592;SDS011;4334;49.982;8.398;2023-08-06T01:42:41;5.60;;;3.13;;
8592;SDS011;4334;49.982;8.398;2023-08-06T01:45:08;4.30;;;3.57;;
8592;SDS011;4334;49.982;8.398;2023-08-06T01:47:40;4.83;;;3.43;;
8592;SDS011;4334;49.982;8.398;2023-08-06T01:50:07;4.20;;;2.93;;
8592;SDS011;4334;49.982;8.398;2023-08-06T01:52:36;6.43;;;3.10;;
8592;SDS011;4334;49.982;8.398;2023-08-06T01:55:05;6.87;;;3.20;;
8592;SDS011;4334;49.982;8.398;2023-08-06T01:57:32;3.70;;;2.93;;
8592;SDS011;4334;49.982;8.398;2023-08-06T01:59:59;3.63;;;3.10;;
8592;SDS011;4334;49.982;8.398;2023-08-06T02:02:26;3.63;;;3.17;;
8592;SDS011;4334;49.982;8.398;2023-08-06T02:04:53;3.63;;;3.00;;
8592;SDS011;4334;49.982;8.398;2023-08-06T02:07:19;5.13;;;3.10;;
8592;SDS011;4334;49.982;8.398;2023-08-06T02:09:46;5.27;;;3.37;;
8592;SDS011;4334;49.982;8.398;2023-08-06T02:12:14;4.00;;;3.07;;
8592;SDS011;4334;49.982;8.398;2023-08-06T02:14:41;4.07;;;3.03;;
8592;SDS011;4334;49.982;8.398;2023-08-06T02:17:07;3.67;;;2.87;;
8592;SDS011;4334;49.982;8.398;2023-08-06T02:19:34;3.40;;;2.97;;
8592;SDS011;4334;49.982;8.398;2023-08-06T02:22:01;5.03;;;3.07;;
8592;SDS011;4334;49.982;8.398;2023-08-06T02:24:28;3.50;;;2.57;;
8592;SDS011;4334;49.982;8.398;2023-08-06T02:26:54;4.27;;;3.30;;
8592;SDS011;4334;49.982;8.398;2023-08-06T02:29:23;3.97;;;3.20;;
8592;SDS011;4334;49.982;8.398;2023-08-06T02:31:49;2.70;;;2.50;;
8592;SDS011;4334;49.982;8.398;2023-08-06T02:34:16;4.20;;;2.97;;
8592;SDS011;4334;49.982;8.398;2023-08-06T02:36:43;6.40;;;3.00;;
8592;SDS011;4334;49.982;8.398;2023-08-06T02:39:09;4.10;;;3.00;;
8592;SDS011;4334;49.982;8.398;2023-08-06T02:41:36;5.07;;;3.07;;
8592;SDS011;4334;49.982;8.398;2023-08-06T02:44:03;3.43;;;2.90;;
8592;SDS011;4334;49.982;8.398;2023-08-06T02:46:31;3.50;;;2.70;;
8592;SDS011;4334;49.982;8.398;2023-08-06T02:48:58;7.97;;;2.93;;
8592;SDS011;4334;49.982;8.398;2023-08-06T02:51:25;2.97;;;2.60;;
8592;SDS011;4334;49.982;8.398;2023-08-06T02:53:51;5.13;;;2.83;;
8592;SDS011;4334;49.982;8.398;2023-08-06T02:56:18;2.87;;;2.57;;
8592;SDS011;4334;49.982;8.398;2023-08-06T02:58:45;3.97;;;2.60;;
8592;SDS011;4334;49.982;8.398;2023-08-06T03:01:12;3.17;;;2.50;;
8592;SDS011;4334;49.982;8.398;2023-08-06T03:03:40;3.43;;;2.60;;
8592;SDS011;4334;49.982;8.398;2023-08-06T03:06:07;3.40;;;2.73;;
8592;SDS011;4334;49.982;8.398;2023-08-06T03:08:34;3.50;;;2.40;;
8592;SDS011;4334;49.982;8.398;2023-08-06T03:11:01;2.93;;;2.40;;
8592;SDS011;4334;49.982;8.398;2023-08-06T03:13:27;7.07;;;2.67;;
8592;SDS011;4334;49.982;8.398;2023-08-06T03:15:54;3.73;;;2.40;;
8592;SDS011;4334;49.982;8.398;2023-08-06T03:18:22;3.97;;;2.80;;
8592;SDS011;4334;49.982;8.398;2023-08-06T03:20:52;3.10;;;2.80;;
8592;SDS011;4334;49.982;8.398;2023-08-06T03:23:19;3.07;;;2.47;;
8592;SDS011;4334;49.982;8.398;2023-08-06T03:25:46;3.57;;;2.50;;
8592;SDS011;4334;49.982;8.398;2023-08-06T03:28:13;6.83;;;2.70;;
8592;SDS011;4334;49.982;8.398;2023-08-06T03:30:39;3.87;;;2.70;;
8592;SDS011;4334;49.982;8.398;2023-08-06T03:33:06;3.17;;;2.40;;
8592;SDS011;4334;49.982;8.398;2023-08-06T03:35:33;2.90;;;2.40;;
8592;SDS011;4334;49.982;8.398;2023-08-06T03:38:01;3.63;;;2.43;;
8592;SDS011;4334;49.982;8.398;2023-08-06T03:40:28;4.50;;;2.43;;
8592;SDS011;4334;49.982;8.398;2023-08-06T03:42:55;3.03;;;2.30;;
8592;SDS011;4334;49.982;8.398;2023-08-06T03:45:21;2.90;;;2.20;;
8592;SDS011;4334;49.982;8.398;2023-08-06T03:47:48;2.33;;;2.13;;
8592;SDS011;4334;49.982;8.398;2023-08-06T03:50:15;3.50;;;2.20;;
8592;SDS011;4334;49.982;8.398;2023-08-06T03:52:43;3.00;;;2.20;;
8592;SDS011;4334;49.982;8.398;2023-08-06T03:55:11;3.40;;;2.33;;
8592;SDS011;4334;49.982;8.398;2023-08-06T03:57:38;2.67;;;2.10;;
8592;SDS011;4334;49.982;8.398;2023-08-06T04:00:06;3.27;;;2.00;;
8592;SDS011;4334;49.982;8.398;2023-08-06T04:02:34;5.13;;;2.10;;
8592;SDS011;4334;49.982;8.398;2023-08-06T04:05:01;1.87;;;1.67;;
8592;SDS011;4334;49.982;8.398;2023-08-06T04:07:28;1.90;;;1.70;;
8592;SDS011;4334;49.982;8.398;2023-08-06T04:09:55;4.40;;;1.70;;
8592;SDS011;4334;49.982;8.398;2023-08-06T04:12:24;2.50;;;1.60;;
8592;SDS011;4334;49.982;8.398;2023-08-06T04:14:51;1.93;;;1.67;;
8592;SDS011;4334;49.982;8.398;2023-08-06T04:17:19;2.30;;;1.50;;
8592;SDS011;4334;49.982;8.398;2023-08-06T04:19:47;2.33;;;1.70;;
8592;SDS011;4334;49.982;8.398;2023-08-06T04:22:15;1.70;;;1.60;;
8592;SDS011;4334;49.982;8.398;2023-08-06T04:24:41;1.47;;;1.37;;
8592;SDS011;4334;49.982;8.398;2023-08-06T04:27:09;3.03;;;1.60;;
8592;SDS011;4334;49.982;8.398;2023-08-06T04:29:37;2.20;;;1.40;;
8592;SDS011;4334;49.982;8.398;2023-08-06T04:32:05;2.23;;;0.93;;
8592;SDS011;4334;49.982;8.398;2023-08-06T04:34:32;3.00;;;1.20;;
8592;SDS011;4334;49.982;8.398;2023-08-06T04:36:59;3.97;;;1.80;;
8592;SDS011;4334;49.982;8.398;2023-08-06T04:39:27;1.80;;;1.40;;
8592;SDS011;4334;49.982;8.398;2023-08-06T04:41:54;3.80;;;1.33;;
8592;SDS011;4334;49.982;8.398;2023-08-06T04:44:21;1.97;;;1.30;;
8592;SDS011;4334;49.982;8.398;2023-08-06T04:46:49;2.50;;;1.33;;
8592;SDS011;4334;49.982;8.398;2023-08-06T04:49:16;1.67;;;1.10;;
8592;SDS011;4334;49.982;8.398;2023-08-06T04:51:43;1.37;;;1.00;;
8592;SDS011;4334;49.982;8.398;2023-08-06T04:54:10;2.83;;;1.17;;
8592;SDS011;4334;49.982;8.398;2023-08-06T04:56:37;3.40;;;1.30;;
8592;SDS011;4334;49.982;8.398;2023-08-06T04:59:04;1.87;;;1.10;;
8592;SDS011;4334;49.982;8.398;2023-08-06T05:01:30;3.40;;;1.27;;
8592;SDS011;4334;49.982;8.398;2023-08-06T05:03:59;1.97;;;1.33;;
8592;SDS011;4334;49.982;8.398;2023-08-06T05:06:25;1.60;;;1.30;;
8592;SDS011;4334;49.982;8.398;2023-08-06T05:08:52;3.90;;;1.43;;
8592;SDS011;4334;49.982;8.398;2023-08-06T05:11:19;3.17;;;1.40;;
8592;SDS011;4334;49.982;8.398;2023-08-06T05:13:46;2.13;;;1.30;;
8592;SDS011;4334;49.982;8.398;2023-08-06T05:16:12;2.07;;;1.47;;
8592;SDS011;4334;49.982;8.398;2023-08-06T05:18:39;3.43;;;1.40;;
8592;SDS011;4334;49.982;8.398;2023-08-06T05:21:08;1.57;;;1.20;;
8592;SDS011;4334;49.982;8.398;2023-08-06T05:23:34;3.20;;;1.40;;
8592;SDS011;4334;49.982;8.398;2023-08-06T05:26:01;1.77;;;1.30;;
8592;SDS011;4334;49.982;8.398;2023-08-06T05:28:28;2.07;;;1.37;;
8592;SDS011;4334;49.982;8.398;2023-08-06T05:30:55;1.30;;;1.20;;
8592;SDS011;4334;49.982;8.398;2023-08-06T05:33:21;2.00;;;1.33;;
8592;SDS011;4334;49.982;8.398;2023-08-06T05:35:49;1.77;;;1.13;;
8592;SDS011;4334;49.982;8.398;2023-08-06T05:38:17;1.40;;;1.30;;
8592;SDS011;4334;49.982;8.398;2023-08-06T05:40:44;1.73;;;1.30;;
8592;SDS011;4334;49.982;8.398;2023-08-06T05:43:10;1.50;;;1.20;;
8592;SDS011;4334;49.982;8.398;2023-08-06T05:45:37;1.10;;;1.00;;
8592;SDS011;4334;49.982;8.398;2023-08-06T05:48:04;1.20;;;1.00;;
8592;SDS011;4334;49.982;8.398;2023-08-06T05:50:31;0.83;;;0.83;;
8592;SDS011;4334;49.982;8.398;2023-08-06T05:52:58;1.17;;;1.07;;
8592;SDS011;4334;49.982;8.398;2023-08-06T05:55:26;1.80;;;1.00;;
8592;SDS011;4334;49.982;8.398;2023-08-06T05:57:52;1.77;;;0.73;;
8592;SDS011;4334;49.982;8.398;2023-08-06T06:00:20;1.10;;;0.80;;
8592;SDS011;4334;49.982;8.398;2023-08-06T06:02:47;0.70;;;0.60;;
8592;SDS011;4334;49.982;8.398;2023-08-06T06:05:14;6.47;;;1.07;;
8592;SDS011;4334;49.982;8.398;2023-08-06T06:07:41;0.37;;;0.37;;
8592;SDS011;4334;49.982;8.398;2023-08-06T06:10:08;1.30;;;0.63;;
8592;SDS011;4334;49.982;8.398;2023-08-06T06:12:37;1.17;;;0.70;;
8592;SDS011;4334;49.982;8.398;2023-08-06T06:15:06;1.10;;;0.73;;
8592;SDS011;4334;49.982;8.398;2023-08-06T06:17:36;0.57;;;0.50;;
8592;SDS011;4334;49.982;8.398;2023-08-06T06:20:04;0.47;;;0.40;;
8592;SDS011;4334;49.982;8.398;2023-08-06T06:22:32;0.80;;;0.80;;
8592;SDS011;4334;49.982;8.398;2023-08-06T06:24:59;0.67;;;0.67;;
8592;SDS011;4334;49.982;8.398;2023-08-06T06:27:25;0.63;;;0.53;;
8592;SDS011;4334;49.982;8.398;2023-08-06T06:29:54;0.67;;;0.67;;
8592;SDS011;4334;49.982;8.398;2023-08-06T06:32:20;1.13;;;0.73;;
8592;SDS011;4334;49.982;8.398;2023-08-06T06:34:47;0.40;;;0.40;;
8592;SDS011;4334;49.982;8.398;2023-08-06T06:37:14;1.07;;;0.50;;
8592;SDS011;4334;49.982;8.398;2023-08-06T06:39:41;0.70;;;0.60;;
8592;SDS011;4334;49.982;8.398;2023-08-06T06:42:09;1.40;;;0.80;;
8592;SDS011;4334;49.982;8.398;2023-08-06T06:44:36;0.83;;;0.57;;
8592;SDS011;4334;49.982;8.398;2023-08-06T06:47:04;1.43;;;0.40;;
8592;SDS011;4334;49.982;8.398;2023-08-06T06:49:31;0.80;;;0.80;;
8592;SDS011;4334;49.982;8.398;2023-08-06T06:52:00;0.60;;;0.60;;
8592;SDS011;4334;49.982;8.398;2023-08-06T06:54:27;2.00;;;0.80;;
8592;SDS011;4334;49.982;8.398;2023-08-06T06:56:54;2.70;;;0.83;;
8592;SDS011;4334;49.982;8.398;2023-08-06T06:59:20;1.33;;;0.53;;
8592;SDS011;4334;49.982;8.398;2023-08-06T07:01:47;1.57;;;0.97;;
8592;SDS011;4334;49.982;8.398;2023-08-06T07:04:15;1.20;;;0.50;;
8592;SDS011;4334;49.982;8.398;2023-08-06T07:06:42;2.00;;;0.53;;
8592;SDS011;4334;49.982;8.398;2023-08-06T07:09:09;0.60;;;0.60;;
8592;SDS011;4334;49.982;8.398;2023-08-06T07:11:36;0.60;;;0.57;;
8592;SDS011;4334;49.982;8.398;2023-08-06T07:14:02;0.60;;;0.60;;
8592;SDS011;4334;49.982;8.398;2023-08-06T07:16:29;0.50;;;0.50;;
8592;SDS011;4334;49.982;8.398;2023-08-06T07:18:56;0.77;;;0.60;;
8592;SDS011;4334;49.982;8.398;2023-08-06T07:21:24;0.90;;;0.90;;
8592;SDS011;4334;49.982;8.398;2023-08-06T07:23:51;1.00;;;0.97;;
8592;SDS011;4334;49.982;8.398;2023-08-06T07:26:18;1.23;;;1.03;;
8592;SDS011;4334;49.982;8.398;2023-08-06T07:28:45;1.63;;;1.10;;
8592;SDS011;4334;49.982;8.398;2023-08-06T07:31:12;2.60;;;2.27;;
8592;SDS011;4334;49.982;8.398;2023-08-06T07:33:38;4.50;;;1.70;;
8592;SDS011;4334;49.982;8.398;2023-08-06T07:36:08;1.53;;;1.00;;
8592;SDS011;4334;49.982;8.398;2023-08-06T07:38:37;0.50;;;0.50;;
8592;SDS011;4334;49.982;8.398;2023-08-06T07:41:04;0.90;;;0.77;;
8592;SDS011;4334;49.982;8.398;2023-08-06T07:43:31;3.67;;;1.10;;
8592;SDS011;4334;49.982;8.398;2023-08-06T07:45:58;1.53;;;1.20;;
8592;SDS011;4334;49.982;8.398;2023-08-06T07:48:26;2.33;;;1.73;;
8592;SDS011;4334;49.982;8.398;2023-08-06T07:50:53;0.50;;;0.50;;
8592;SDS011;4334;49.982;8.398;2023-08-06T07:53:20;0.40;;;0.40;;
8592;SDS011;4334;49.982;8.398;2023-08-06T07:55:50;0.60;;;0.60;;
8592;SDS011;4334;49.982;8.398;2023-08-06T07:58:17;0.80;;;0.80;;
8592;SDS011;4334;49.982;8.398;2023-08-06T08:00:44;0.63;;;0.50;;
8592;SDS011;4334;49.982;8.398;2023-08-06T08:03:11;1.43;;;0.97;;
8592;SDS011;4334;49.982;8.398;2023-08-06T08:05:38;1.30;;;1.10;;
8592;SDS011;4334;49.982;8.398;2023-08-06T08:08:05;1.57;;;1.10;;
8592;SDS011;4334;49.982;8.398;2023-08-06T08:10:33;1.00;;;0.90;;
8592;SDS011;4334;49.982;8.398;2023-08-06T08:13:01;2.63;;;1.20;;
8592;SDS011;4334;49.982;8.398;2023-08-06T08:15:29;1.80;;;0.50;;
8592;SDS011;4334;49.982;8.398;2023-08-06T08:17:57;0.63;;;0.63;;
8592;SDS011;4334;49.982;8.398;2023-08-06T08:20:24;1.02;;;0.55;;
8592;SDS011;4334;49.982;8.398;2023-08-06T08:22:52;0.70;;;0.70;;
8592;SDS011;4334;49.982;8.398;2023-08-06T08:25:19;1.85;;;0.55;;
8592;SDS011;4334;49.982;8.398;2023-08-06T08:27:46;1.30;;;1.13;;
8592;SDS011;4334;49.982;8.398;2023-08-06T08:30:17;1.80;;;1.55;;
8592;SDS011;4334;49.982;8.398;2023-08-06T08:32:44;0.90;;;0.90;;
8592;SDS011;4334;49.982;8.398;2023-08-06T08:35:12;0.80;;;0.80;;
8592;SDS011;4334;49.982;8.398;2023-08-06T08:37:41;1.67;;;1.40;;
8592;SDS011;4334;49.982;8.398;2023-08-06T08:40:08;1.05;;;1.00;;
8592;SDS011;4334;49.982;8.398;2023-08-06T08:42:37;2.38;;;0.82;;
8592;SDS011;4334;49.982;8.398;2023-08-06T08:45:05;1.67;;;1.10;;
8592;SDS011;4334;49.982;8.398;2023-08-06T08:47:41;0.90;;;0.90;;
8592;SDS011;4334;49.982;8.398;2023-08-06T08:50:09;0.73;;;0.73;;
8592;SDS011;4334;49.982;8.398;2023-08-06T08:52:39;1.77;;;1.60;;
8592;SDS011;4334;49.982;8.398;2023-08-06T08:55:08;1.23;;;1.10;;
8592;SDS011;4334;49.982;8.398;2023-08-06T08:57:40;1.17;;;0.80;;
8592;SDS011;4334;49.982;8.398;2023-08-06T09:00:08;1.58;;;0.77;;
8592;SDS011;4334;49.982;8.398;2023-08-06T09:02:40;1.67;;;0.68;;
8592;SDS011;4334;49.982;8.398;2023-08-06T09:05:08;0.45;;;0.45;;
8592;SDS011;4334;49.982;8.398;2023-08-06T09:07:42;0.50;;;0.50;;
8592;SDS011;4334;49.982;8.398;2023-08-06T09:10:11;1.98;;;0.52;;
8592;SDS011;4334;49.982;8.398;2023-08-06T09:12:42;0.50;;;0.50;;
8592;SDS011;4334;49.982;8.398;2023-08-06T09:15:11;0.50;;;0.50;;
8592;SDS011;4334;49.982;8.398;2023-08-06T09:17:38;0.57;;;0.57;;
8592;SDS011;4334;49.982;8.398;2023-08-06T09:20:11;0.20;;;0.20;;
8592;SDS011;4334;49.982;8.398;2023-08-06T09:22:39;1.00;;;0.40;;
8592;SDS011;4334;49.982;8.398;2023-08-06T09:25:06;1.13;;;0.50;;
8592;SDS011;4334;49.982;8.398;2023-08-06T09:27:35;0.43;;;0.43;;
8592;SDS011;4334;49.982;8.398;2023-08-06T09:30:03;0.38;;;0.38;;
8592;SDS011;4334;49.982;8.398;2023-08-06T09:32:44;0.30;;;0.30;;
8592;SDS011;4334;49.982;8.398;2023-08-06T09:35:16;0.30;;;0.30;;
8592;SDS011;4334;49.982;8.398;2023-08-06T09:37:43;0.77;;;0.60;;
8592;SDS011;4334;49.982;8.398;2023-08-06T09:40:26;0.73;;;0.57;;
8592;SDS011;4334;49.982;8.398;2023-08-06T09:42:53;1.37;;;0.60;;
8592;SDS011;4334;49.982;8.398;2023-08-06T09:45:21;0.43;;;0.43;;
8592;SDS011;4334;49.982;8.398;2023-08-06T09:47:48;0.47;;;0.47;;
8592;SDS011;4334;49.982;8.398;2023-08-06T09:50:17;0.70;;;0.60;;
8592;SDS011;4334;49.982;8.398;2023-08-06T09:52:45;0.73;;;0.57;;
8592;SDS011;4334;49.982;8.398;2023-08-06T09:55:12;0.87;;;0.60;;
8592;SDS011;4334;49.982;8.398;2023-08-06T09:57:40;0.30;;;0.30;;
8592;SDS011;4334;49.982;8.398;2023-08-06T10:00:08;0.40;;;0.30;;
8592;SDS011;4334;49.982;8.398;2023-08-06T10:02:38;0.50;;;0.50;;
8592;SDS011;4334;49.982;8.398;2023-08-06T10:05:05;0.47;;;0.47;;
8592;SDS011;4334;49.982;8.398;2023-08-06T10:07:34;0.70;;;0.70;;
8592;SDS011;4334;49.982;8.398;2023-08-06T10:10:02;0.40;;;0.40;;
8592;SDS011;4334;49.982;8.398;2023-08-06T10:12:32;0.73;;;0.70;;
8592;SDS011;4334;49.982;8.398;2023-08-06T10:15:03;0.40;;;0.40;;
8592;SDS011;4334;49.982;8.398;2023-08-06T10:17:35;0.40;;;0.40;;
8592;SDS011;4334;49.982;8.398;2023-08-06T10:20:04;0.60;;;0.60;;
8592;SDS011;4334;49.982;8.398;2023-08-06T10:22:34;0.47;;;0.38;;
8592;SDS011;4334;49.982;8.398;2023-08-06T10:25:02;0.43;;;0.43;;
8592;SDS011;4334;49.982;8.398;2023-08-06T10:27:34;0.60;;;0.40;;
8592;SDS011;4334;49.982;8.398;2023-08-06T10:30:21;0.40;;;0.40;;
8592;SDS011;4334;49.982;8.398;2023-08-06T10:32:48;0.50;;;0.50;;
8592;SDS011;4334;49.982;8.398;2023-08-06T10:35:33;0.40;;;0.40;;
8592;SDS011;4334;49.982;8.398;2023-08-06T10:38:07;0.93;;;0.43;;
8592;SDS011;4334;49.982;8.398;2023-08-06T10:40:35;0.30;;;0.30;;
8592;SDS011;4334;49.982;8.398;2023-08-06T10:43:04;1.58;;;0.43;;
8592;SDS011;4334;49.982;8.398;2023-08-06T10:45:34;0.57;;;0.40;;
8592;SDS011;4334;49.982;8.398;2023-08-06T10:48:01;0.40;;;0.40;;
8592;SDS011;4334;49.982;8.398;2023-08-06T10:50:29;0.40;;;0.40;;
8592;SDS011;4334;49.982;8.398;2023-08-06T10:52:56;0.30;;;0.30;;
8592;SDS011;4334;49.982;8.398;2023-08-06T10:55:26;0.38;;;0.38;;
8592;SDS011;4334;49.982;8.398;2023-08-06T10:57:55;0.30;;;0.30;;
8592;SDS011;4334;49.982;8.398;2023-08-06T11:00:24;0.40;;;0.25;;
8592;SDS011;4334;49.982;8.398;2023-08-06T11:02:51;0.47;;;0.45;;
8592;SDS011;4334;49.982;8.398;2023-08-06T11:05:19;0.40;;;0.40;;
8592;SDS011;4334;49.982;8.398;2023-08-06T11:07:46;0.50;;;0.50;;
8592;SDS011;4334;49.982;8.398;2023-08-06T11:10:14;0.40;;;0.40;;
8592;SDS011;4334;49.982;8.398;2023-08-06T11:12:42;0.65;;;0.65;;
8592;SDS011;4334;49.982;8.398;2023-08-06T11:15:10;0.30;;;0.20;;
8592;SDS011;4334;49.982;8.398;2023-08-06T11:17:39;0.57;;;0.20;;
8592;SDS011;4334;49.982;8.398;2023-08-06T11:20:07;3.23;;;0.20;;
8592;SDS011;4334;49.982;8.398;2023-08-06T11:22:35;0.20;;;0.20;;
8592;SDS011;4334;49.982;8.398;2023-08-06T11:25:05;0.00;;;0.00;;
8592;SDS011;4334;49.982;8.398;2023-08-06T11:27:33;0.10;;;0.10;;
8592;SDS011;4334;49.982;8.398;2023-08-06T11:30:01;0.00;;;0.00;;
8592;SDS011;4334;49.982;8.398;2023-08-06T11:32:29;0.10;;;0.10;;
8592;SDS011;4334;49.982;8.398;2023-08-06T11:34:55;0.47;;;0.10;;
8592;SDS011;4334;49.982;8.398;2023-08-06T11:37:22;0.30;;;0.23;;
8592;SDS011;4334;49.982;8.398;2023-08-06T11:39:50;0.10;;;0.10;;
8592;SDS011;4334;49.982;8.398;2023-08-06T11:42:18;0.27;;;0.20;;
8592;SDS011;4334;49.982;8.398;2023-08-06T11:44:45;0.17;;;0.17;;
8592;SDS011;4334;49.982;8.398;2023-08-06T11:47:14;1.70;;;0.50;;
8592;SDS011;4334;49.982;8.398;2023-08-06T11:49:42;0.13;;;0.13;;
8592;SDS011;4334;49.982;8.398;2023-08-06T11:52:11;2.53;;;0.20;;
8592;SDS011;4334;49.982;8.398;2023-08-06T11:54:41;0.43;;;0.43;;
8592;SDS011;4334;49.982;8.398;2023-08-06T11:57:08;0.50;;;0.50;;
8592;SDS011;4334;49.982;8.398;2023-08-06T11:59:36;0.27;;;0.27;;
8592;SDS011;4334;49.982;8.398;2023-08-06T12:02:03;0.43;;;0.43;;
8592;SDS011;4334;49.982;8.398;2023-08-06T12:04:33;0.30;;;0.30;;
8592;SDS011;4334;49.982;8.398;2023-08-06T12:07:25;0.53;;;0.53;;
8592;SDS011;4334;49.982;8.398;2023-08-06T12:09:53;0.40;;;0.30;;
8592;SDS011;4334;49.982;8.398;2023-08-06T12:12:20;0.87;;;0.57;;
8592;SDS011;4334;49.982;8.398;2023-08-06T12:14:47;0.40;;;0.30;;
8592;SDS011;4334;49.982;8.398;2023-08-06T12:17:13;0.67;;;0.67;;
8592;SDS011;4334;49.982;8.398;2023-08-06T12:19:43;0.50;;;0.50;;
8592;SDS011;4334;49.982;8.398;2023-08-06T12:22:11;1.97;;;0.60;;
8592;SDS011;4334;49.982;8.398;2023-08-06T12:24:38;0.40;;;0.40;;
8592;SDS011;4334;49.982;8.398;2023-08-06T12:27:05;0.43;;;0.43;;
8592;SDS011;4334;49.982;8.398;2023-08-06T12:29:32;0.57;;;0.53;;
8592;SDS011;4334;49.982;8.398;2023-08-06T12:31:59;2.20;;;0.57;;
8592;SDS011;4334;49.982;8.398;2023-08-06T12:34:26;0.50;;;0.50;;
8592;SDS011;4334;49.982;8.398;2023-08-06T12:36:54;1.43;;;0.70;;
8592;SDS011;4334;49.982;8.398;2023-08-06T12:39:20;0.60;;;0.50;;
8592;SDS011;4334;49.982;8.398;2023-08-06T12:41:47;0.40;;;0.40;;
8592;SDS011;4334;49.982;8.398;2023-08-06T12:44:14;0.43;;;0.43;;
8592;SDS011;4334;49.982;8.398;2023-08-06T12:46:41;0.60;;;0.60;;
8592;SDS011;4334;49.982;8.398;2023-08-06T12:49:07;0.70;;;0.70;;
8592;SDS011;4334;49.982;8.398;2023-08-06T12:51:34;0.67;;;0.67;;
8592;SDS011;4334;49.982;8.398;2023-08-06T12:54:02;0.50;;;0.50;;
8592;SDS011;4334;49.982;8.398;2023-08-06T12:56:29;0.57;;;0.57;;
8592;SDS011;4334;49.982;8.398;2023-08-06T12:58:56;0.87;;;0.70;;
8592;SDS011;4334;49.982;8.398;2023-08-06T13:01:22;0.87;;;0.60;;
8592;SDS011;4334;49.982;8.398;2023-08-06T13:03:49;0.87;;;0.80;;
8592;SDS011;4334;49.982;8.398;2023-08-06T13:06:16;0.73;;;0.73;;
8592;SDS011;4334;49.982;8.398;2023-08-06T13:08:43;0.63;;;0.63;;
8592;SDS011;4334;49.982;8.398;2023-08-06T13:11:11;0.70;;;0.70;;
8592;SDS011;4334;49.982;8.398;2023-08-06T13:13:38;0.67;;;0.63;;
8592;SDS011;4334;49.982;8.398;2023-08-06T13:16:05;0.70;;;0.70;;
8592;SDS011;4334;49.982;8.398;2023-08-06T13:18:31;1.27;;;0.87;;
8592;SDS011;4334;49.982;8.398;2023-08-06T13:20:58;0.77;;;0.77;;
8592;SDS011;4334;49.982;8.398;2023-08-06T13:23:25;0.90;;;0.90;;
8592;SDS011;4334;49.982;8.398;2023-08-06T13:25:52;1.13;;;0.80;;
8592;SDS011;4334;49.982;8.398;2023-08-06T13:28:21;1.10;;;0.93;;
8592;SDS011;4334;49.982;8.398;2023-08-06T13:30:48;0.57;;;0.57;;
8592;SDS011;4334;49.982;8.398;2023-08-06T13:33:15;4.30;;;1.10;;
8592;SDS011;4334;49.982;8.398;2023-08-06T13:35:42;1.33;;;1.13;;
8592;SDS011;4334;49.982;8.398;2023-08-06T13:38:08;1.20;;;1.10;;
8592;SDS011;4334;49.982;8.398;2023-08-06T13:40:36;0.70;;;0.70;;
8592;SDS011;4334;49.982;8.398;2023-08-06T13:43:03;1.27;;;0.97;;
8592;SDS011;4334;49.982;8.398;2023-08-06T13:45:31;1.60;;;0.80;;
8592;SDS011;4334;49.982;8.398;2023-08-06T13:48:00;0.40;;;0.40;;
8592;SDS011;4334;49.982;8.398;2023-08-06T13:50:26;0.47;;;0.47;;
8592;SDS011;4334;49.982;8.398;2023-08-06T13:52:54;0.50;;;0.50;;
8592;SDS011;4334;49.982;8.398;2023-08-06T13:55:21;0.70;;;0.70;;
8592;SDS011;4334;49.982;8.398;2023-08-06T13:57:48;0.77;;;0.60;;
8592;SDS011;4334;49.982;8.398;2023-08-06T14:00:16;0.73;;;0.43;;
8592;SDS011;4334;49.982;8.398;2023-08-06T14:02:45;0.30;;;0.30;;
8592;SDS011;4334;49.982;8.398;2023-08-06T14:05:12;1.67;;;0.40;;
8592;SDS011;4334;49.982;8.398;2023-08-06T14:07:40;2.03;;;0.67;;
8592;SDS011;4334;49.982;8.398;2023-08-06T14:10:07;0.60;;;0.60;;
8592;SDS011;4334;49.982;8.398;2023-08-06T14:12:35;1.60;;;0.53;;
8592;SDS011;4334;49.982;8.398;2023-08-06T14:15:02;1.60;;;0.67;;
8592;SDS011;4334;49.982;8.398;2023-08-06T14:17:31;0.50;;;0.50;;
8592;SDS011;4334;49.982;8.398;2023-08-06T14:19:59;0.23;;;0.23;;
8592;SDS011;4334;49.982;8.398;2023-08-06T14:22:29;1.30;;;0.30;;
8592;SDS011;4334;49.982;8.398;2023-08-06T14:24:56;1.43;;;0.43;;
8592;SDS011;4334;49.982;8.398;2023-08-06T14:27:23;0.50;;;0.47;;
8592;SDS011;4334;49.982;8.398;2023-08-06T14:29:50;0.20;;;0.20;;
8592;SDS011;4334;49.982;8.398;2023-08-06T14:32:17;0.70;;;0.33;;
8592;SDS011;4334;49.982;8.398;2023-08-06T14:34:44;0.40;;;0.40;;
8592;SDS011;4334;49.982;8.398;2023-08-06T14:37:12;0.47;;;0.47;;
8592;SDS011;4334;49.982;8.398;2023-08-06T14:39:39;0.40;;;0.40;;
8592;SDS011;4334;49.982;8.398;2023-08-06T14:42:06;0.30;;;0.30;;
8592;SDS011;4334;49.982;8.398;2023-08-06T14:44:33;0.50;;;0.50;;
8592;SDS011;4334;49.982;8.398;2023-08-06T14:47:00;0.40;;;0.40;;
8592;SDS011;4334;49.982;8.398;2023-08-06T14:49:27;0.27;;;0.20;;
8592;SDS011;4334;49.982;8.398;2023-08-06T14:51:53;0.33;;;0.30;;
8592;SDS011;4334;49.982;8.398;2023-08-06T14:54:25;0.30;;;0.30;;
8592;SDS011;4334;49.982;8.398;2023-08-06T14:56:52;0.43;;;0.33;;
8592;SDS011;4334;49.982;8.398;2023-08-06T14:59:19;0.27;;;0.27;;
8592;SDS011;4334;49.982;8.398;2023-08-06T15:01:46;0.10;;;0.10;;
8592;SDS011;4334;49.982;8.398;2023-08-06T15:04:13;0.20;;;0.20;;
8592;SDS011;4334;49.982;8.398;2023-08-06T15:06:40;0.33;;;0.33;;
8592;SDS011;4334;49.982;8.398;2023-08-06T15:09:07;0.20;;;0.20;;
8592;SDS011;4334;49.982;8.398;2023-08-06T15:11:35;1.07;;;0.33;;
8592;SDS011;4334;49.982;8.398;2023-08-06T15:14:02;0.10;;;0.10;;
8592;SDS011;4334;49.982;8.398;2023-08-06T15:16:32;0.33;;;0.30;;
8592;SDS011;4334;49.982;8.398;2023-08-06T15:18:59;0.50;;;0.23;;